createdAt,value
2022-09-30T00:01:24.714Z,12.20
2022-09-30T00:03:52.975Z,12.20
2022-09-30T00:06:20.916Z,12.20
2022-09-30T00:08:48.148Z,12.20
2022-09-30T00:11:18.812Z,12.20
2022-09-30T00:13:49.384Z,12.30
2022-09-30T00:16:18.234Z,12.30
2022-09-30T00:18:45.834Z,12.30
2022-09-30T00:21:15.810Z,12.30
2022-09-30T00:23:43.920Z,12.30
2022-09-30T00:26:20.501Z,12.30
2022-09-30T00:28:51.532Z,12.20
2022-09-30T00:31:19.883Z,12.20
2022-09-30T00:34:07.059Z,12.20
2022-09-30T00:36:47.977Z,12.30
2022-09-30T00:39:26.915Z,12.30
2022-09-30T00:41:57.713Z,12.30
2022-09-30T00:44:54.073Z,12.40
2022-09-30T00:47:28.613Z,12.40
2022-09-30T00:49:59.924Z,12.50
2022-09-30T00:52:26.991Z,12.50
2022-09-30T00:54:58.189Z,12.40
2022-09-30T00:57:25.217Z,12.40
2022-09-30T00:59:52.625Z,12.30
2022-09-30T01:02:20.010Z,12.30
2022-09-30T01:04:47.214Z,12.30
2022-09-30T01:07:15.230Z,12.30
2022-09-30T01:09:43.561Z,12.30
2022-09-30T01:12:15.015Z,12.30
2022-09-30T01:14:42.836Z,12.30
2022-09-30T01:17:18.696Z,12.30
2022-09-30T01:20:04.231Z,12.30
2022-09-30T01:22:31.086Z,12.20
2022-09-30T01:25:34.980Z,12.10
2022-09-30T01:28:04.689Z,12.00
2022-09-30T01:31:09.139Z,11.90
2022-09-30T01:34:00.574Z,11.80
2022-09-30T01:36:53.110Z,11.80
2022-09-30T01:39:46.996Z,11.80
2022-09-30T01:42:22.811Z,11.80
2022-09-30T01:45:18.235Z,11.80
2022-09-30T01:47:51.027Z,11.80
2022-09-30T01:50:24.654Z,11.80
2022-09-30T01:53:21.098Z,11.80
2022-09-30T01:55:57.954Z,11.80
2022-09-30T01:58:33.188Z,11.80
2022-09-30T02:01:06.339Z,11.70
2022-09-30T02:03:41.724Z,11.80
2022-09-30T02:06:15.829Z,11.70
2022-09-30T02:08:53.895Z,11.70
2022-09-30T02:11:25.407Z,11.70
2022-09-30T02:14:16.818Z,11.70
2022-09-30T02:16:59.594Z,11.60
2022-09-30T02:19:38.020Z,11.60
2022-09-30T02:22:14.241Z,11.50
2022-09-30T02:24:44.035Z,11.50
2022-09-30T02:27:16.918Z,11.40
2022-09-30T02:29:50.258Z,11.30
2022-09-30T02:32:40.347Z,11.10
2022-09-30T02:35:13.874Z,11.00
2022-09-30T02:37:52.551Z,10.80
2022-09-30T02:40:48.184Z,10.70
2022-09-30T02:43:16.683Z,10.50
2022-09-30T02:45:48.300Z,10.50
2022-09-30T02:48:43.224Z,10.40
2022-09-30T02:51:20.228Z,10.40
2022-09-30T02:54:08.276Z,10.40
2022-09-30T02:56:55.778Z,10.40
2022-09-30T02:59:25.184Z,10.50
2022-09-30T03:01:52.160Z,10.50
2022-09-30T03:04:33.608Z,10.50
2022-09-30T03:07:01.001Z,10.50
2022-09-30T03:09:28.348Z,10.50
2022-09-30T03:12:04.596Z,10.60
2022-09-30T03:15:07.526Z,10.60
2022-09-30T03:18:03.440Z,10.60
2022-09-30T03:20:45.249Z,10.60
2022-09-30T03:23:43.632Z,10.60
2022-09-30T03:26:40.921Z,10.60
2022-09-30T03:29:33.173Z,10.60
2022-09-30T03:32:34.353Z,10.60
2022-09-30T03:35:19.903Z,10.60
2022-09-30T03:37:52.891Z,10.60
2022-09-30T03:40:53.529Z,10.60
2022-09-30T03:43:39.008Z,10.60
2022-09-30T03:46:16.179Z,10.60
2022-09-30T03:48:46.468Z,10.60
2022-09-30T03:51:13.923Z,10.60
2022-09-30T03:53:42.455Z,10.60
2022-09-30T03:56:09.425Z,10.60
2022-09-30T03:58:39.927Z,10.60
2022-09-30T04:01:06.895Z,10.60
2022-09-30T04:03:35.556Z,10.60
2022-09-30T04:06:03.201Z,10.60
2022-09-30T04:08:33.709Z,10.60
2022-09-30T04:11:00.856Z,10.60
2022-09-30T04:13:27.711Z,10.60
2022-09-30T04:15:55.302Z,10.60
2022-09-30T04:18:22.184Z,10.60
2022-09-30T04:20:49.097Z,10.60
2022-09-30T04:23:16.127Z,10.60
2022-09-30T04:25:42.985Z,10.60
2022-09-30T04:28:09.886Z,10.60
2022-09-30T04:30:38.186Z,10.60
2022-09-30T04:33:05.038Z,10.60
2022-09-30T04:35:32.736Z,10.60
2022-09-30T04:37:59.652Z,10.50
2022-09-30T04:40:26.605Z,10.50
2022-09-30T04:42:57.150Z,10.50
2022-09-30T04:45:25.129Z,10.50
2022-09-30T04:47:52.351Z,10.50
2022-09-30T04:50:19.404Z,10.50
2022-09-30T04:52:46.329Z,10.50
2022-09-30T04:55:13.256Z,10.50
2022-09-30T04:57:43.534Z,10.50
2022-09-30T05:00:11.192Z,10.50
2022-09-30T05:02:38.181Z,10.50
2022-09-30T05:05:05.403Z,10.50
2022-09-30T05:07:32.388Z,10.50
2022-09-30T05:09:59.641Z,10.50
2022-09-30T05:12:26.754Z,10.60
2022-09-30T05:14:53.812Z,10.60
2022-09-30T05:17:20.674Z,10.60
2022-09-30T05:19:47.890Z,10.60
2022-09-30T05:22:15.599Z,10.60
2022-09-30T05:24:42.472Z,10.60
2022-09-30T05:27:09.426Z,10.60
2022-09-30T05:29:36.373Z,10.60
2022-09-30T05:32:03.311Z,10.60
2022-09-30T05:34:30.630Z,10.60
2022-09-30T05:36:57.628Z,10.60
2022-09-30T05:39:24.533Z,10.60
2022-09-30T05:41:51.416Z,10.60
2022-09-30T05:44:19.443Z,10.60
2022-09-30T05:46:46.410Z,10.60
2022-09-30T05:49:13.443Z,10.60
2022-09-30T05:51:40.716Z,10.60
2022-09-30T05:54:07.669Z,10.60
2022-09-30T05:56:34.820Z,10.60
2022-09-30T05:59:02.253Z,10.60
2022-09-30T06:01:29.245Z,10.70
2022-09-30T06:03:56.271Z,10.70
2022-09-30T06:06:23.428Z,10.70
2022-09-30T06:08:50.785Z,10.80
2022-09-30T06:11:20.947Z,10.80
2022-09-30T06:13:48.938Z,10.80
2022-09-30T06:16:18.491Z,10.90
2022-09-30T06:18:45.876Z,10.90
2022-09-30T06:21:15.515Z,11.00
2022-09-30T06:23:43.184Z,11.00
2022-09-30T06:26:13.477Z,11.10
2022-09-30T06:28:41.339Z,11.10
2022-09-30T06:31:08.613Z,11.20
2022-09-30T06:33:35.562Z,11.50
2022-09-30T06:36:06.820Z,12.60
2022-09-30T06:38:37.259Z,14.00
2022-09-30T06:41:04.440Z,15.60
2022-09-30T06:43:37.785Z,17.10
2022-09-30T06:46:15.423Z,18.40
2022-09-30T06:48:45.909Z,19.70
2022-09-30T06:51:12.774Z,20.90
2022-09-30T06:53:40.305Z,22.00
2022-09-30T06:56:07.437Z,23.00
2022-09-30T06:58:34.372Z,23.90
2022-09-30T07:01:06.194Z,24.60
2022-09-30T07:03:35.588Z,25.00
2022-09-30T07:06:04.969Z,25.30
2022-09-30T07:08:33.979Z,25.10
2022-09-30T07:11:04.386Z,25.10
2022-09-30T07:13:33.097Z,25.20
2022-09-30T07:16:00.061Z,25.40
2022-09-30T07:18:28.799Z,26.00
2022-09-30T07:20:57.066Z,26.50
2022-09-30T07:23:27.102Z,26.70
2022-09-30T07:25:55.718Z,26.90
2022-09-30T07:28:28.150Z,27.20
2022-09-30T07:31:19.892Z,27.70
2022-09-30T07:33:47.058Z,28.20
2022-09-30T07:36:18.735Z,28.50
2022-09-30T07:38:50.797Z,28.60
2022-09-30T07:41:27.253Z,28.90
2022-09-30T07:43:58.799Z,29.10
2022-09-30T07:46:32.121Z,29.70
2022-09-30T07:49:04.623Z,30.10
2022-09-30T07:51:34.794Z,30.20
2022-09-30T07:54:08.437Z,30.40
2022-09-30T07:57:08.094Z,30.20
2022-09-30T07:59:27.830Z,30.60
2022-09-30T08:01:55.703Z,30.90
2022-09-30T08:04:24.389Z,31.00
2022-09-30T08:06:54.644Z,31.00
2022-09-30T08:09:23.564Z,31.20
2022-09-30T08:11:50.902Z,30.80
2022-09-30T08:14:21.443Z,30.90
2022-09-30T08:16:48.823Z,31.40
2022-09-30T08:19:19.024Z,31.60
2022-09-30T08:21:46.787Z,31.70
2022-09-30T08:24:14.823Z,31.90
2022-09-30T08:26:42.441Z,31.90
2022-09-30T08:29:16.949Z,31.90
2022-09-30T08:31:52.664Z,32.40
2022-09-30T08:34:21.363Z,32.50
2022-09-30T08:36:48.604Z,32.40
2022-09-30T08:39:15.597Z,32.40
2022-09-30T08:42:13.935Z,32.70
2022-09-30T08:44:52.426Z,32.80
2022-09-30T08:47:31.587Z,33.00
2022-09-30T08:50:30.622Z,33.20
2022-09-30T08:53:08.364Z,33.30
2022-09-30T08:55:43.977Z,33.30
2022-09-30T08:58:38.869Z,33.20
2022-09-30T09:01:21.247Z,32.80
2022-09-30T09:03:48.364Z,32.70
2022-09-30T09:06:27.346Z,32.80
2022-09-30T09:09:15.937Z,33.10
2022-09-30T09:11:48.603Z,33.60
2022-09-30T09:14:39.448Z,33.80
2022-09-30T09:17:25.169Z,33.60
2022-09-30T09:20:07.794Z,33.90
2022-09-30T09:22:36.478Z,34.00
2022-09-30T09:25:04.255Z,33.60
2022-09-30T09:28:01.983Z,33.40
2022-09-30T09:30:34.523Z,33.40
2022-09-30T09:33:15.161Z,33.70
2022-09-30T09:35:54.224Z,33.70
2022-09-30T09:38:45.812Z,33.40
2022-09-30T09:41:35.994Z,33.50
2022-09-30T09:44:11.073Z,33.50
2022-09-30T09:46:46.632Z,33.60
2022-09-30T09:49:20.397Z,33.80
2022-09-30T09:52:13.188Z,34.10
2022-09-30T09:54:44.315Z,33.80
2022-09-30T09:57:15.809Z,33.80
2022-09-30T09:59:58.561Z,33.40
2022-09-30T10:02:31.797Z,33.90
2022-09-30T10:05:03.825Z,33.70
2022-09-30T10:07:34.592Z,33.60
2022-09-30T10:10:23.523Z,33.90
2022-09-30T10:12:50.960Z,33.80
2022-09-30T10:15:26.445Z,33.70
2022-09-30T10:17:59.237Z,32.80
2022-09-30T10:20:34.368Z,32.60
2022-09-30T10:23:20.772Z,32.60
2022-09-30T10:25:58.157Z,33.00
2022-09-30T10:28:29.946Z,33.20
2022-09-30T10:31:00.033Z,33.00
2022-09-30T10:33:43.424Z,32.50
2022-09-30T10:36:12.233Z,32.40
2022-09-30T10:38:52.342Z,32.30
2022-09-30T10:41:25.937Z,32.30
2022-09-30T10:43:56.855Z,32.20
2022-09-30T10:46:35.718Z,32.00
2022-09-30T10:49:20.429Z,31.90
2022-09-30T10:51:47.474Z,31.60
2022-09-30T10:54:36.037Z,31.90
2022-09-30T10:57:05.787Z,31.30
2022-09-30T10:59:39.010Z,30.90
2022-09-30T11:02:24.137Z,31.00
2022-09-30T11:05:03.144Z,30.70
2022-09-30T11:07:32.984Z,30.20
2022-09-30T11:10:03.577Z,30.00
2022-09-30T11:13:02.464Z,29.40
2022-09-30T11:15:34.589Z,29.10
2022-09-30T11:18:12.668Z,29.00
2022-09-30T11:20:50.665Z,28.30
2022-09-30T11:23:32.896Z,27.60
2022-09-30T11:26:30.161Z,26.80
2022-09-30T11:29:35.497Z,26.30
2022-09-30T11:32:18.354Z,25.80
2022-09-30T11:35:01.659Z,25.30
2022-09-30T11:37:54.340Z,25.00
2022-09-30T11:40:21.258Z,24.80
2022-09-30T11:43:04.110Z,24.70
2022-09-30T11:45:54.272Z,24.80
2022-09-30T11:48:33.287Z,24.40
2022-09-30T11:51:13.422Z,24.20
2022-09-30T11:54:07.470Z,24.00
2022-09-30T11:56:46.700Z,23.60
2022-09-30T11:59:38.721Z,23.30
2022-09-30T12:02:32.630Z,23.10
2022-09-30T12:05:18.008Z,22.80
2022-09-30T12:08:18.674Z,22.60
2022-09-30T12:10:53.807Z,22.30
2022-09-30T12:13:33.731Z,22.20
2022-09-30T12:16:03.942Z,21.90
2022-09-30T12:18:42.840Z,21.80
2022-09-30T12:21:16.632Z,21.50
2022-09-30T12:24:10.394Z,21.50
2022-09-30T12:26:37.985Z,21.60
2022-09-30T12:29:32.480Z,21.50
2022-09-30T12:32:23.737Z,21.40
2022-09-30T12:35:08.362Z,21.20
2022-09-30T12:37:57.812Z,21.10
2022-09-30T12:41:02.299Z,21.20
2022-09-30T12:43:58.122Z,21.20
2022-09-30T12:46:49.983Z,21.20
2022-09-30T12:49:21.659Z,21.40
2022-09-30T12:51:56.182Z,21.50
2022-09-30T12:54:33.464Z,21.50
2022-09-30T12:57:05.196Z,21.50
2022-09-30T12:59:34.647Z,21.60
2022-09-30T13:02:03.846Z,21.60
2022-09-30T13:04:39.552Z,21.60
2022-09-30T13:07:08.059Z,21.50
2022-09-30T13:09:55.111Z,21.20
2022-09-30T13:12:28.877Z,21.10
2022-09-30T13:15:43.948Z,20.90
2022-09-30T13:18:20.059Z,20.80
2022-09-30T13:21:05.158Z,20.60
2022-09-30T13:23:39.073Z,20.40
2022-09-30T13:26:28.791Z,20.50
2022-09-30T13:29:18.494Z,20.50
2022-09-30T13:31:48.597Z,20.60
2022-09-30T13:34:24.214Z,20.60
2022-09-30T13:36:51.102Z,20.50
2022-09-30T13:39:31.614Z,20.50
2022-09-30T13:42:18.077Z,20.50
2022-09-30T13:45:00.805Z,20.50
2022-09-30T13:47:40.083Z,20.50
2022-09-30T13:50:20.089Z,20.30
2022-09-30T13:52:53.891Z,20.10
2022-09-30T13:55:25.841Z,19.90
2022-09-30T13:58:04.510Z,19.80
2022-09-30T14:00:53.330Z,19.70
2022-09-30T14:03:51.907Z,19.80
2022-09-30T14:06:51.114Z,19.80
2022-09-30T14:09:27.065Z,19.80
2022-09-30T14:12:25.409Z,19.60
2022-09-30T14:15:22.281Z,19.40
2022-09-30T14:18:01.466Z,19.20
2022-09-30T14:20:40.600Z,19.10
2022-09-30T14:23:18.717Z,19.00
2022-09-30T14:26:23.949Z,18.90
2022-09-30T14:29:05.544Z,18.90
2022-09-30T14:31:34.026Z,18.90
2022-09-30T14:34:01.844Z,18.90
2022-09-30T14:36:28.915Z,19.00
2022-09-30T14:39:01.180Z,19.10
2022-09-30T14:41:29.771Z,19.20
2022-09-30T14:44:04.696Z,19.20
2022-09-30T14:46:39.619Z,19.20
2022-09-30T14:49:10.030Z,19.20
2022-09-30T14:51:47.214Z,19.20
2022-09-30T14:54:31.803Z,19.00
2022-09-30T14:57:01.009Z,18.90
2022-09-30T14:59:34.824Z,18.80
2022-09-30T15:02:10.988Z,18.70
2022-09-30T15:04:46.905Z,18.60
2022-09-30T15:07:13.957Z,18.60
2022-09-30T15:09:46.293Z,18.50
2022-09-30T15:12:22.769Z,18.40
2022-09-30T15:14:54.968Z,18.30
2022-09-30T15:17:25.210Z,18.20
2022-09-30T15:19:52.111Z,18.10
2022-09-30T15:22:20.245Z,18.10
2022-09-30T15:24:48.476Z,18.00
2022-09-30T15:27:23.781Z,18.00
2022-09-30T15:29:58.854Z,17.90
2022-09-30T15:32:29.168Z,17.80
2022-09-30T15:34:58.687Z,17.80
2022-09-30T15:37:33.806Z,17.70
2022-09-30T15:40:20.664Z,17.60
2022-09-30T15:43:01.517Z,17.60
2022-09-30T15:45:36.441Z,17.60
2022-09-30T15:48:23.775Z,17.60
2022-09-30T15:50:59.497Z,17.60
2022-09-30T15:53:46.455Z,17.50
2022-09-30T15:56:36.980Z,17.50
2022-09-30T15:59:11.463Z,17.50
2022-09-30T16:01:40.112Z,17.40
2022-09-30T16:04:14.424Z,17.40
2022-09-30T16:06:41.293Z,17.40
2022-09-30T16:09:18.685Z,17.40
2022-09-30T16:11:59.311Z,17.30
2022-09-30T16:14:29.941Z,17.30
2022-09-30T16:17:00.377Z,17.20
2022-09-30T16:19:29.187Z,17.20
2022-09-30T16:21:56.426Z,17.10
2022-09-30T16:24:29.140Z,17.10
2022-09-30T16:26:57.988Z,17.10
2022-09-30T16:29:26.439Z,17.10
2022-09-30T16:31:56.317Z,17.00
2022-09-30T16:34:27.938Z,16.90
2022-09-30T16:37:04.191Z,16.90
2022-09-30T16:39:31.291Z,16.90
2022-09-30T16:41:58.160Z,16.80
2022-09-30T16:44:25.033Z,16.80
2022-09-30T16:46:52.092Z,16.70
2022-09-30T16:49:19.889Z,16.60
2022-09-30T16:51:47.001Z,16.50
2022-09-30T16:54:14.163Z,16.50
2022-09-30T16:56:41.038Z,16.50
2022-09-30T16:59:13.981Z,16.40
2022-09-30T17:01:41.824Z,16.40
2022-09-30T17:04:11.791Z,16.30
2022-09-30T17:06:40.872Z,16.30
2022-09-30T17:09:10.960Z,16.30
2022-09-30T17:11:38.336Z,16.20
2022-09-30T17:14:06.000Z,16.20
2022-09-30T17:16:34.712Z,16.10
2022-09-30T17:19:01.992Z,16.20
2022-09-30T17:21:29.904Z,16.10
2022-09-30T17:23:58.050Z,16.10
2022-09-30T17:26:24.961Z,16.00
2022-09-30T17:28:53.491Z,16.00
2022-09-30T17:31:20.606Z,16.00
2022-09-30T17:33:48.572Z,16.00
2022-09-30T17:36:15.462Z,16.00
2022-09-30T17:38:42.464Z,16.00
2022-09-30T17:41:31.614Z,15.90
2022-09-30T17:44:02.511Z,15.90
2022-09-30T17:46:41.248Z,15.90
2022-09-30T17:49:09.181Z,15.90
2022-09-30T17:51:37.803Z,15.90
2022-09-30T17:54:06.777Z,15.90
2022-09-30T17:56:34.700Z,15.90
2022-09-30T17:59:02.768Z,15.90
2022-09-30T18:01:30.842Z,15.90
2022-09-30T18:04:00.172Z,15.90
2022-09-30T18:06:28.724Z,15.90
2022-09-30T18:08:56.002Z,15.90
2022-09-30T18:11:24.379Z,15.80
2022-09-30T18:13:57.916Z,15.80
2022-09-30T18:16:33.899Z,15.80
2022-09-30T18:19:02.525Z,15.80
2022-09-30T18:21:30.209Z,15.80
2022-09-30T18:23:57.709Z,15.80
2022-09-30T18:26:25.672Z,15.80
2022-09-30T18:28:53.122Z,15.80
2022-09-30T18:31:28.518Z,15.80
2022-09-30T18:33:55.905Z,15.80
2022-09-30T18:36:24.978Z,15.70
2022-09-30T18:38:52.148Z,15.70
2022-09-30T18:41:19.062Z,15.70
2022-09-30T18:43:50.169Z,15.70
2022-09-30T18:46:19.810Z,15.70
2022-09-30T18:48:50.093Z,15.70
2022-09-30T18:51:18.826Z,15.70
2022-09-30T18:53:45.807Z,15.70
2022-09-30T18:56:12.667Z,15.60
2022-09-30T18:58:40.233Z,15.60
2022-09-30T19:01:08.759Z,15.60
2022-09-30T19:03:36.469Z,15.60
2022-09-30T19:06:08.163Z,15.50
2022-09-30T19:08:35.245Z,15.50
2022-09-30T19:11:15.763Z,15.40
2022-09-30T19:13:44.328Z,15.30
2022-09-30T19:16:11.783Z,15.20
2022-09-30T19:18:39.907Z,15.10
2022-09-30T19:21:12.220Z,15.00
2022-09-30T19:23:40.287Z,14.90
2022-09-30T19:26:08.536Z,14.80
2022-09-30T19:28:37.945Z,14.70
2022-09-30T19:31:24.145Z,14.70
2022-09-30T19:33:56.738Z,14.50
2022-09-30T19:36:26.896Z,14.50
2022-09-30T19:39:10.323Z,14.40
2022-09-30T19:41:38.590Z,14.30
2022-09-30T19:44:05.700Z,14.20
2022-09-30T19:46:32.656Z,14.10
2022-09-30T19:48:59.872Z,14.10
2022-09-30T19:51:29.256Z,14.00
2022-09-30T19:54:06.253Z,13.90
2022-09-30T19:56:35.291Z,13.90
2022-09-30T19:59:02.521Z,13.80
2022-09-30T20:01:30.962Z,13.80
2022-09-30T20:04:04.918Z,13.80
2022-09-30T20:06:33.496Z,13.70
2022-09-30T20:09:02.327Z,13.60
2022-09-30T20:11:33.973Z,13.60
2022-09-30T20:14:21.664Z,13.60
2022-09-30T20:16:48.668Z,13.60
2022-09-30T20:19:19.813Z,13.60
2022-09-30T20:21:47.128Z,13.50
2022-09-30T20:24:15.988Z,13.40
2022-09-30T20:26:44.921Z,13.40
2022-09-30T20:29:12.085Z,13.40
2022-09-30T20:31:44.144Z,13.30
2022-09-30T20:34:13.516Z,13.30
2022-09-30T20:36:41.117Z,13.20
2022-09-30T20:39:08.638Z,13.20
2022-09-30T20:41:37.914Z,13.20
2022-09-30T20:44:05.503Z,13.20
2022-09-30T20:46:32.698Z,13.20
2022-09-30T20:49:00.836Z,13.10
2022-09-30T20:51:31.075Z,13.10
2022-09-30T20:53:59.490Z,13.10
2022-09-30T20:56:39.308Z,13.00
2022-09-30T20:59:16.292Z,13.00
2022-09-30T21:01:43.231Z,12.90
2022-09-30T21:04:10.199Z,12.90
2022-09-30T21:06:37.137Z,12.90
2022-09-30T21:09:05.632Z,12.90
2022-09-30T21:11:33.218Z,12.80
2022-09-30T21:14:01.922Z,12.80
2022-09-30T21:16:29.815Z,12.80
2022-09-30T21:18:56.845Z,12.80
2022-09-30T21:21:24.907Z,12.70
2022-09-30T21:23:55.569Z,12.80
2022-09-30T21:26:22.696Z,12.70
2022-09-30T21:28:50.876Z,12.70
2022-09-30T21:31:23.134Z,12.60
2022-09-30T21:33:55.379Z,12.60
2022-09-30T21:36:22.906Z,12.60
2022-09-30T21:38:50.541Z,12.60
2022-09-30T21:41:18.197Z,12.50
2022-09-30T21:43:45.559Z,12.50
2022-09-30T21:46:14.880Z,12.40
2022-09-30T21:48:42.666Z,12.40
2022-09-30T21:51:10.389Z,12.40
2022-09-30T21:53:38.997Z,12.30
2022-09-30T21:56:07.101Z,12.30
2022-09-30T21:58:34.281Z,12.30
2022-09-30T22:01:03.919Z,12.30
2022-09-30T22:03:37.900Z,12.30
2022-09-30T22:06:10.286Z,12.20
2022-09-30T22:08:42.031Z,12.20
2022-09-30T22:11:11.459Z,12.20
2022-09-30T22:13:40.908Z,12.20
2022-09-30T22:16:08.309Z,12.20
2022-09-30T22:18:36.026Z,12.10
2022-09-30T22:21:14.557Z,12.10
2022-09-30T22:23:41.805Z,12.10
2022-09-30T22:26:16.200Z,12.10
2022-09-30T22:28:43.202Z,12.10
2022-09-30T22:31:18.757Z,12.10
2022-09-30T22:34:05.524Z,12.10
2022-09-30T22:36:50.795Z,12.20
2022-09-30T22:39:18.527Z,12.20
2022-09-30T22:41:45.361Z,12.20
2022-09-30T22:44:12.352Z,12.20
2022-09-30T22:46:39.897Z,12.20
2022-09-30T22:49:07.117Z,12.20
2022-09-30T22:51:34.365Z,12.20
2022-09-30T22:54:03.434Z,12.20
2022-09-30T22:56:31.055Z,12.10
2022-09-30T22:58:58.512Z,12.20
2022-09-30T23:01:27.071Z,12.20
2022-09-30T23:03:54.341Z,12.20
2022-09-30T23:06:23.052Z,12.20
2022-09-30T23:08:50.818Z,12.20
2022-09-30T23:11:18.808Z,12.20
2022-09-30T23:13:46.456Z,12.10
2022-09-30T23:16:14.749Z,12.10
2022-09-30T23:18:42.094Z,12.10
2022-09-30T23:21:12.132Z,12.20
2022-09-30T23:23:39.872Z,12.10
2022-09-30T23:26:25.369Z,12.20
2022-09-30T23:28:56.784Z,12.20
2022-09-30T23:31:23.950Z,12.20
2022-09-30T23:33:53.264Z,12.20
2022-09-30T23:36:29.553Z,12.20
2022-09-30T23:39:12.763Z,12.20
2022-09-30T23:41:40.134Z,12.20
2022-09-30T23:44:07.251Z,12.20
2022-09-30T23:46:34.196Z,12.20
2022-09-30T23:49:01.099Z,12.10
2022-09-30T23:51:27.996Z,12.10
2022-09-30T23:53:55.045Z,12.00
2022-09-30T23:56:22.112Z,12.00
2022-09-30T23:58:50.488Z,12.00
